createdAt,value
2023-10-26T00:01:49.691Z,87.43
2023-10-26T00:04:17.712Z,88.51
2023-10-26T00:06:45.342Z,87.91
2023-10-26T00:09:13.293Z,88.54
2023-10-26T00:11:41.020Z,88.44
2023-10-26T00:14:08.752Z,89.02
2023-10-26T00:16:36.726Z,88.63
2023-10-26T00:19:05.052Z,88.73
2023-10-26T00:21:32.758Z,88.62
2023-10-26T00:24:00.347Z,88.46
2023-10-26T00:26:28.319Z,87.95
2023-10-26T00:28:56.216Z,88.47
2023-10-26T00:31:24.430Z,89.06
2023-10-26T00:33:52.220Z,88.72
2023-10-26T00:36:20.027Z,89.05
2023-10-26T00:38:47.770Z,89.62
2023-10-26T00:41:15.632Z,88.79
2023-10-26T00:43:43.859Z,88.65
2023-10-26T00:46:12.753Z,89.29
2023-10-26T00:48:40.770Z,89.40
2023-10-26T00:51:08.975Z,88.99
2023-10-26T00:53:38.455Z,90.19
2023-10-26T00:56:06.252Z,88.69
2023-10-26T00:58:34.244Z,89.61
2023-10-26T01:01:02.089Z,89.36
2023-10-26T01:03:31.503Z,90.03
2023-10-26T01:05:59.384Z,90.59
2023-10-26T01:08:27.031Z,90.61
2023-10-26T01:10:54.670Z,90.50
2023-10-26T01:13:22.205Z,90.59
2023-10-26T01:15:49.785Z,90.32
2023-10-26T01:18:17.377Z,90.53
2023-10-26T01:20:45.077Z,90.09
2023-10-26T01:23:12.806Z,90.04
2023-10-26T01:25:40.674Z,89.81
2023-10-26T01:28:08.423Z,90.07
2023-10-26T01:30:36.113Z,90.08
2023-10-26T01:33:03.759Z,90.52
2023-10-26T01:35:39.530Z,90.02
2023-10-26T01:38:07.133Z,89.20
2023-10-26T01:40:34.664Z,89.37
2023-10-26T01:43:02.482Z,89.60
2023-10-26T01:45:30.408Z,90.57
2023-10-26T01:48:01.393Z,89.30
2023-10-26T01:50:30.584Z,90.32
2023-10-26T01:52:58.875Z,89.73
2023-10-26T01:55:26.865Z,90.38
2023-10-26T01:57:54.413Z,89.33
2023-10-26T02:00:22.324Z,89.77
2023-10-26T02:02:51.098Z,89.95
2023-10-26T02:05:18.933Z,90.59
2023-10-26T02:07:46.526Z,89.48
2023-10-26T02:10:15.469Z,89.41
2023-10-26T02:12:43.002Z,88.83
2023-10-26T02:15:10.954Z,89.80
2023-10-26T02:17:38.726Z,89.46
2023-10-26T02:20:06.917Z,89.86
2023-10-26T02:22:34.373Z,89.99
2023-10-26T02:25:01.916Z,89.77
2023-10-26T02:27:29.407Z,89.62
2023-10-26T02:29:56.972Z,89.75
2023-10-26T02:32:24.708Z,90.78
2023-10-26T02:34:52.543Z,91.22
2023-10-26T02:37:20.683Z,91.59
2023-10-26T02:39:48.251Z,91.10
2023-10-26T02:42:15.968Z,91.25
2023-10-26T02:44:43.740Z,90.21
2023-10-26T02:47:11.659Z,91.43
2023-10-26T02:49:39.265Z,91.93
2023-10-26T02:52:07.056Z,91.86
2023-10-26T02:54:34.824Z,91.99
2023-10-26T02:57:02.362Z,91.23
2023-10-26T02:59:29.987Z,91.68
2023-10-26T03:01:57.953Z,92.37
2023-10-26T03:04:25.572Z,92.05
2023-10-26T03:06:53.070Z,92.02
2023-10-26T03:09:21.421Z,91.80
2023-10-26T03:11:48.989Z,91.80
2023-10-26T03:14:16.478Z,91.40
2023-10-26T03:16:44.030Z,91.24
2023-10-26T03:19:11.571Z,91.73
2023-10-26T03:21:39.280Z,92.52
2023-10-26T03:24:07.406Z,92.39
2023-10-26T03:26:35.192Z,92.80
2023-10-26T03:29:03.860Z,92.38
2023-10-26T03:31:34.666Z,92.22
2023-10-26T03:34:02.486Z,92.30
2023-10-26T03:36:30.407Z,92.44
2023-10-26T03:38:58.686Z,91.63
2023-10-26T03:41:26.665Z,92.13
2023-10-26T03:43:56.012Z,92.01
2023-10-26T03:46:23.836Z,91.91
2023-10-26T03:48:51.745Z,92.29
2023-10-26T03:51:19.649Z,91.73
2023-10-26T03:53:47.246Z,92.00
2023-10-26T03:56:14.819Z,93.02
2023-10-26T03:58:42.561Z,92.61
2023-10-26T04:01:10.273Z,93.12
2023-10-26T04:03:37.824Z,92.78
2023-10-26T04:06:05.979Z,93.40
2023-10-26T04:08:33.608Z,93.29
2023-10-26T04:11:01.127Z,93.14
2023-10-26T04:13:31.710Z,93.64
2023-10-26T04:16:03.421Z,94.07
2023-10-26T04:18:30.977Z,93.55
2023-10-26T04:20:58.766Z,94.19
2023-10-26T04:23:27.728Z,94.23
2023-10-26T04:25:55.615Z,94.75
2023-10-26T04:28:23.962Z,94.38
2023-10-26T04:30:51.874Z,95.07
2023-10-26T04:33:19.530Z,94.73
2023-10-26T04:35:48.318Z,94.15
2023-10-26T04:38:15.954Z,94.46
2023-10-26T04:40:44.829Z,94.78
2023-10-26T04:43:12.625Z,94.61
2023-10-26T04:45:40.576Z,94.32
2023-10-26T04:48:08.308Z,94.92
2023-10-26T04:50:36.288Z,94.98
2023-10-26T04:53:04.271Z,95.03
2023-10-26T04:55:34.878Z,94.75
2023-10-26T04:58:03.716Z,95.14
2023-10-26T05:00:32.015Z,95.27
2023-10-26T05:02:59.755Z,94.53
2023-10-26T05:05:27.942Z,94.84
2023-10-26T05:07:55.600Z,94.67
2023-10-26T05:10:23.203Z,95.04
2023-10-26T05:12:51.076Z,94.73
2023-10-26T05:15:20.200Z,95.14
2023-10-26T05:17:47.873Z,95.61
2023-10-26T05:20:15.691Z,95.73
2023-10-26T05:22:43.302Z,95.84
2023-10-26T05:25:12.720Z,96.42
2023-10-26T05:27:40.466Z,95.63
2023-10-26T05:30:08.844Z,96.20
2023-10-26T05:32:36.536Z,96.08
2023-10-26T05:35:05.502Z,96.22
2023-10-26T05:37:33.173Z,96.12
2023-10-26T05:40:00.670Z,96.46
2023-10-26T05:42:28.259Z,96.81
2023-10-26T05:44:59.151Z,97.37
2023-10-26T05:47:26.948Z,97.08
2023-10-26T05:49:55.740Z,95.88
2023-10-26T05:52:23.517Z,96.96
2023-10-26T05:54:53.890Z,96.00
2023-10-26T05:57:21.595Z,97.46
2023-10-26T05:59:49.200Z,96.73
2023-10-26T06:02:16.965Z,95.73
2023-10-26T06:04:44.919Z,96.71
2023-10-26T06:07:13.070Z,96.77
2023-10-26T06:09:41.065Z,96.95
2023-10-26T06:12:09.146Z,96.40
2023-10-26T06:14:37.949Z,97.30
2023-10-26T06:17:05.507Z,96.59
2023-10-26T06:19:34.970Z,96.18
2023-10-26T06:22:03.719Z,96.64
2023-10-26T06:24:31.548Z,96.48
2023-10-26T06:26:59.438Z,96.70
2023-10-26T06:29:27.776Z,96.30
2023-10-26T06:31:55.619Z,95.88
2023-10-26T06:34:23.525Z,96.01
2023-10-26T06:36:51.282Z,95.91
2023-10-26T06:39:18.930Z,97.25
2023-10-26T06:41:46.508Z,96.38
2023-10-26T06:44:14.097Z,96.76
2023-10-26T06:46:41.661Z,95.74
2023-10-26T06:49:22.988Z,96.15
2023-10-26T06:51:56.949Z,95.02
2023-10-26T06:54:24.647Z,96.13
2023-10-26T06:56:52.253Z,95.23
2023-10-26T06:59:20.291Z,95.71
2023-10-26T07:02:09.744Z,95.08
2023-10-26T07:04:36.957Z,96.66
2023-10-26T07:07:04.845Z,95.16
2023-10-26T07:09:32.759Z,95.24
2023-10-26T07:12:00.862Z,95.44
2023-10-26T07:14:28.718Z,95.06
2023-10-26T07:16:56.488Z,95.29
2023-10-26T07:19:24.219Z,94.26
2023-10-26T07:21:51.719Z,94.38
2023-10-26T07:24:19.535Z,94.51
2023-10-26T07:26:50.686Z,94.83
2023-10-26T07:29:18.529Z,93.92
2023-10-26T07:31:47.939Z,93.80
2023-10-26T07:34:17.420Z,94.05
2023-10-26T07:36:44.977Z,94.50
2023-10-26T07:39:46.072Z,94.06
2023-10-26T07:42:07.327Z,94.80
2023-10-26T07:44:39.890Z,95.82
2023-10-26T07:47:10.602Z,94.72
2023-10-26T07:49:38.503Z,94.75
2023-10-26T07:52:06.592Z,95.32
2023-10-26T07:54:34.426Z,95.54
2023-10-26T07:57:02.386Z,95.27
2023-10-26T07:59:31.356Z,94.66
2023-10-26T08:01:59.058Z,95.13
2023-10-26T08:04:29.203Z,94.89
2023-10-26T08:06:56.731Z,94.88
2023-10-26T08:09:24.219Z,95.55
2023-10-26T08:11:51.742Z,95.11
2023-10-26T08:14:37.292Z,95.74
2023-10-26T08:17:08.133Z,95.43
2023-10-26T08:19:36.013Z,96.26
2023-10-26T08:22:03.678Z,95.09
2023-10-26T08:24:32.891Z,94.67
2023-10-26T08:27:00.421Z,94.56
2023-10-26T08:29:29.649Z,94.53
2023-10-26T08:31:57.663Z,94.29
2023-10-26T08:34:26.943Z,94.02
2023-10-26T08:37:11.657Z,94.84
2023-10-26T08:39:41.894Z,94.97
2023-10-26T08:42:10.003Z,94.73
2023-10-26T08:44:38.986Z,95.09
2023-10-26T08:47:07.422Z,95.11
2023-10-26T08:49:36.274Z,94.57
2023-10-26T08:52:05.077Z,94.21
2023-10-26T08:54:32.733Z,94.17
2023-10-26T08:57:07.726Z,93.89
2023-10-26T08:59:36.866Z,93.99
2023-10-26T09:02:05.782Z,93.52
2023-10-26T09:04:33.867Z,93.71
2023-10-26T09:07:01.359Z,93.21
2023-10-26T09:09:28.969Z,93.79
2023-10-26T09:12:09.875Z,93.08
2023-10-26T09:14:37.926Z,94.39
2023-10-26T09:17:05.604Z,93.83
2023-10-26T09:19:39.543Z,92.90
2023-10-26T09:22:08.889Z,93.18
2023-10-26T09:24:36.640Z,92.78
2023-10-26T09:27:04.587Z,93.87
2023-10-26T09:29:43.428Z,92.68
2023-10-26T09:32:12.067Z,92.86
2023-10-26T09:34:45.015Z,92.64
2023-10-26T09:37:13.145Z,91.97
2023-10-26T09:39:44.472Z,92.68
2023-10-26T09:42:13.377Z,92.23
2023-10-26T09:44:41.551Z,93.92
2023-10-26T09:47:09.862Z,92.43
2023-10-26T09:49:37.610Z,91.71
2023-10-26T09:52:05.520Z,91.44
2023-10-26T09:54:37.085Z,92.26
2023-10-26T09:57:12.040Z,91.58
2023-10-26T09:59:40.054Z,91.50
2023-10-26T10:02:15.446Z,90.92
2023-10-26T10:04:45.151Z,90.63
2023-10-26T10:07:44.337Z,90.84
2023-10-26T10:10:13.508Z,90.48
2023-10-26T10:12:43.793Z,91.10
2023-10-26T10:15:36.140Z,89.95
2023-10-26T10:18:03.077Z,90.32
2023-10-26T10:20:33.208Z,88.80
2023-10-26T10:23:02.212Z,89.24
2023-10-26T10:25:51.875Z,89.37
2023-10-26T10:28:20.065Z,88.52
2023-10-26T10:30:58.260Z,89.37
2023-10-26T10:33:29.830Z,88.48
2023-10-26T10:36:05.949Z,88.24
2023-10-26T10:38:33.571Z,88.13
2023-10-26T10:41:01.555Z,87.94
2023-10-26T10:43:40.479Z,88.54
2023-10-26T10:46:16.295Z,87.40
2023-10-26T10:49:07.340Z,87.90
2023-10-26T10:51:36.782Z,87.84
2023-10-26T10:54:26.516Z,87.31
2023-10-26T10:57:00.559Z,87.59
2023-10-26T10:59:30.851Z,87.14
2023-10-26T11:02:10.526Z,87.45
2023-10-26T11:05:15.706Z,87.42
2023-10-26T11:07:44.011Z,87.20
2023-10-26T11:10:12.257Z,87.10
2023-10-26T11:12:40.188Z,86.79
2023-10-26T11:15:09.011Z,86.62
2023-10-26T11:17:40.662Z,86.95
2023-10-26T11:20:38.745Z,87.65
2023-10-26T11:23:09.230Z,86.67
2023-10-26T11:25:37.673Z,87.27
2023-10-26T11:28:07.988Z,86.59
2023-10-26T11:30:49.159Z,87.49
2023-10-26T11:33:40.941Z,87.40
2023-10-26T11:36:13.593Z,86.49
2023-10-26T11:38:52.356Z,86.32
2023-10-26T11:41:24.277Z,86.30
2023-10-26T11:43:53.641Z,85.06
2023-10-26T11:49:44.443Z,84.89
2023-10-26T11:52:12.321Z,85.58
2023-10-26T11:54:52.458Z,85.33
2023-10-26T11:57:20.267Z,85.79
2023-10-26T11:59:48.416Z,86.33
2023-10-26T12:02:16.454Z,86.85
2023-10-26T12:04:44.199Z,86.74
2023-10-26T12:07:11.669Z,86.00
2023-10-26T12:09:39.201Z,86.51
2023-10-26T12:12:07.595Z,86.27
2023-10-26T12:14:35.458Z,85.72
2023-10-26T12:17:03.337Z,86.42
2023-10-26T12:19:31.252Z,85.96
2023-10-26T12:22:02.784Z,85.58
2023-10-26T12:24:31.201Z,86.49
2023-10-26T12:27:00.215Z,85.58
2023-10-26T12:29:41.051Z,85.74
2023-10-26T12:32:09.187Z,85.40
2023-10-26T12:34:37.494Z,85.93
2023-10-26T12:37:05.860Z,85.55
2023-10-26T12:39:34.100Z,85.34
2023-10-26T12:42:01.930Z,85.41
2023-10-26T12:44:29.397Z,85.12
2023-10-26T12:46:57.623Z,85.52
2023-10-26T12:49:25.257Z,85.81
2023-10-26T12:51:53.178Z,85.25
2023-10-26T12:54:21.100Z,86.10
2023-10-26T12:56:49.061Z,85.44
2023-10-26T12:59:16.577Z,85.47
2023-10-26T13:01:44.562Z,85.71
2023-10-26T13:04:12.173Z,85.94
2023-10-26T13:06:40.763Z,85.60
2023-10-26T13:09:08.937Z,85.82
2023-10-26T13:11:36.696Z,85.31
2023-10-26T13:14:07.015Z,84.91
2023-10-26T13:16:57.024Z,86.00
2023-10-26T13:19:23.891Z,85.39
2023-10-26T13:21:51.949Z,85.93
2023-10-26T13:24:19.931Z,85.54
2023-10-26T13:26:48.016Z,85.91
2023-10-26T13:29:15.815Z,85.82
2023-10-26T13:31:43.752Z,86.06
2023-10-26T13:34:11.415Z,85.91
2023-10-26T13:36:39.020Z,86.30
2023-10-26T13:39:06.510Z,85.76
2023-10-26T13:41:34.158Z,85.99
2023-10-26T13:44:02.069Z,86.34
2023-10-26T13:46:30.037Z,86.16
2023-10-26T13:48:57.755Z,86.47
2023-10-26T13:51:25.722Z,85.86
2023-10-26T13:53:53.521Z,85.72
2023-10-26T13:56:22.773Z,86.13
2023-10-26T13:58:50.614Z,86.41
2023-10-26T14:01:18.320Z,86.37
2023-10-26T14:03:46.568Z,86.70
2023-10-26T14:06:14.605Z,86.23
2023-10-26T14:08:42.105Z,86.52
2023-10-26T14:11:10.040Z,86.90
2023-10-26T14:13:37.928Z,87.05
2023-10-26T14:16:06.200Z,87.13
2023-10-26T14:18:34.060Z,87.10
2023-10-26T14:21:01.816Z,87.10
2023-10-26T14:23:29.697Z,86.91
2023-10-26T14:25:57.320Z,87.04
2023-10-26T14:28:25.122Z,86.67
2023-10-26T14:30:56.279Z,87.18
2023-10-26T14:33:25.137Z,87.33
2023-10-26T14:35:53.632Z,87.42
2023-10-26T14:38:21.471Z,87.86
2023-10-26T14:40:56.604Z,88.00
2023-10-26T14:43:25.531Z,88.13
2023-10-26T14:45:54.005Z,87.76
2023-10-26T14:48:22.143Z,88.08
2023-10-26T14:50:58.193Z,87.56
2023-10-26T14:53:26.624Z,87.53
2023-10-26T14:55:54.702Z,88.21
2023-10-26T14:58:23.234Z,88.41
2023-10-26T15:00:52.498Z,88.39
2023-10-26T15:03:20.404Z,88.18
2023-10-26T15:05:48.978Z,88.20
2023-10-26T15:08:16.886Z,88.05
2023-10-26T15:10:48.958Z,89.08
2023-10-26T15:13:16.894Z,89.17
2023-10-26T15:15:44.763Z,89.02
2023-10-26T15:18:13.486Z,88.24
2023-10-26T15:20:41.271Z,87.75
2023-10-26T15:23:08.879Z,86.98
2023-10-26T15:25:37.190Z,86.77
2023-10-26T15:28:04.849Z,87.34
2023-10-26T15:30:32.808Z,88.00
2023-10-26T15:33:00.481Z,87.52
2023-10-26T15:35:28.379Z,87.15
2023-10-26T15:37:56.308Z,86.83
2023-10-26T15:40:24.361Z,86.97
2023-10-26T15:42:51.865Z,87.01
2023-10-26T15:45:19.591Z,86.66
2023-10-26T15:47:47.092Z,86.89
2023-10-26T15:50:14.963Z,86.80
2023-10-26T15:52:42.743Z,85.58
2023-10-26T15:55:10.594Z,86.19
2023-10-26T15:57:38.337Z,86.21
2023-10-26T16:00:10.787Z,86.03
2023-10-26T16:02:39.079Z,86.50
2023-10-26T16:05:07.398Z,85.93
2023-10-26T16:07:34.938Z,85.81
2023-10-26T16:10:02.833Z,86.03
2023-10-26T16:12:30.800Z,86.54
2023-10-26T16:14:58.684Z,85.49
2023-10-26T16:17:26.195Z,85.04
2023-10-26T16:19:53.853Z,85.76
2023-10-26T16:22:21.344Z,85.46
2023-10-26T16:24:52.436Z,85.21
2023-10-26T16:27:19.984Z,85.47
2023-10-26T16:29:48.030Z,85.09
2023-10-26T16:32:18.019Z,85.51
2023-10-26T16:34:45.586Z,84.89
2023-10-26T16:37:13.218Z,84.88
2023-10-26T16:39:40.775Z,85.74
2023-10-26T16:42:08.620Z,85.06
2023-10-26T16:44:36.498Z,85.62
2023-10-26T16:47:04.580Z,85.75
2023-10-26T16:49:32.299Z,85.34
2023-10-26T16:52:00.784Z,84.90
2023-10-26T16:54:29.148Z,84.93
2023-10-26T16:56:56.918Z,84.50
2023-10-26T16:59:24.430Z,85.26
2023-10-26T17:01:51.931Z,85.08
2023-10-26T17:04:19.448Z,85.40
2023-10-26T17:06:47.042Z,84.72
2023-10-26T17:09:14.604Z,85.10
2023-10-26T17:11:42.118Z,84.78
2023-10-26T17:14:09.642Z,84.98
2023-10-26T17:16:37.254Z,85.31
2023-10-26T17:19:05.061Z,84.45
2023-10-26T17:21:32.574Z,84.20
2023-10-26T17:24:00.443Z,84.27
2023-10-26T17:26:28.343Z,84.25
2023-10-26T17:28:57.709Z,84.65
2023-10-26T17:31:25.556Z,84.34
2023-10-26T17:33:54.192Z,84.20
2023-10-26T17:36:22.226Z,84.82
2023-10-26T17:38:49.959Z,84.92
2023-10-26T17:41:17.617Z,84.03
2023-10-26T17:43:45.195Z,84.57
2023-10-26T17:46:15.402Z,84.51
2023-10-26T17:48:45.173Z,84.80
2023-10-26T17:51:14.447Z,85.00
2023-10-26T17:53:43.169Z,84.49
2023-10-26T17:56:13.829Z,85.08
2023-10-26T17:58:42.683Z,84.69
2023-10-26T18:01:11.749Z,85.65
2023-10-26T18:03:39.596Z,85.46
2023-10-26T18:06:07.452Z,85.28
2023-10-26T18:08:37.342Z,85.26
2023-10-26T18:11:05.963Z,85.81
2023-10-26T18:13:35.302Z,85.93
2023-10-26T18:16:11.649Z,85.21
2023-10-26T18:18:39.804Z,85.70
2023-10-26T18:21:08.975Z,85.69
2023-10-26T18:23:37.620Z,86.17
2023-10-26T18:26:13.555Z,85.89
2023-10-26T18:28:45.363Z,85.71
2023-10-26T18:31:18.541Z,86.11
2023-10-26T18:33:50.481Z,85.80
2023-10-26T18:36:20.105Z,86.12
2023-10-26T18:38:49.248Z,85.98
2023-10-26T18:41:21.228Z,85.60
2023-10-26T18:43:50.094Z,85.91
2023-10-26T18:46:18.091Z,85.59
2023-10-26T18:48:45.705Z,86.20
2023-10-26T18:51:13.377Z,86.34
2023-10-26T18:53:42.681Z,85.59
2023-10-26T18:56:17.578Z,85.56
2023-10-26T18:58:45.824Z,85.77
2023-10-26T19:01:13.690Z,86.59
2023-10-26T19:03:57.419Z,86.29
2023-10-26T19:06:28.726Z,86.37
2023-10-26T19:08:56.340Z,86.22
2023-10-26T19:11:24.235Z,85.99
2023-10-26T19:13:54.242Z,86.49
2023-10-26T19:16:22.540Z,86.17
2023-10-26T19:18:50.604Z,86.33
2023-10-26T19:21:18.775Z,86.56
2023-10-26T19:23:46.924Z,86.91
2023-10-26T19:26:15.718Z,87.07
2023-10-26T19:28:43.308Z,87.45
2023-10-26T19:31:12.625Z,87.70
2023-10-26T19:33:43.170Z,87.46
2023-10-26T19:36:11.088Z,88.56
2023-10-26T19:38:39.286Z,87.84
2023-10-26T19:41:07.494Z,88.18
2023-10-26T19:43:35.610Z,88.01
2023-10-26T19:46:03.559Z,87.89
2023-10-26T19:48:31.166Z,89.27
2023-10-26T19:51:00.324Z,89.22
2023-10-26T19:53:34.440Z,87.87
2023-10-26T19:56:03.636Z,87.24
2023-10-26T19:58:31.375Z,88.11
2023-10-26T20:00:58.947Z,88.42
2023-10-26T20:03:26.549Z,87.85
2023-10-26T20:05:57.408Z,87.25
2023-10-26T20:08:25.643Z,87.29
2023-10-26T20:10:53.359Z,86.43
2023-10-26T20:13:20.894Z,86.87
2023-10-26T20:15:48.975Z,86.82
2023-10-26T20:18:16.844Z,87.24
2023-10-26T20:20:44.749Z,87.22
2023-10-26T20:23:12.586Z,87.03
2023-10-26T20:25:41.003Z,87.17
2023-10-26T20:28:11.029Z,87.08
2023-10-26T20:30:38.877Z,86.98
2023-10-26T20:33:06.462Z,86.39
2023-10-26T20:35:33.957Z,86.35
2023-10-26T20:38:01.665Z,86.44
2023-10-26T20:40:29.486Z,87.01
2023-10-26T20:42:59.275Z,86.73
2023-10-26T20:45:27.371Z,87.33
2023-10-26T20:47:55.216Z,87.25
2023-10-26T20:50:23.450Z,87.25
2023-10-26T20:52:51.335Z,87.37
2023-10-26T20:55:18.995Z,87.50
2023-10-26T20:57:46.871Z,87.28
2023-10-26T21:00:15.226Z,86.94
2023-10-26T21:02:43.138Z,86.91
2023-10-26T21:05:11.069Z,87.27
2023-10-26T21:07:38.872Z,87.17
2023-10-26T21:10:07.226Z,86.96
2023-10-26T21:12:35.120Z,87.12
2023-10-26T21:15:03.043Z,86.88
2023-10-26T21:17:31.833Z,87.09
2023-10-26T21:19:59.629Z,86.99
2023-10-26T21:22:27.226Z,86.75
2023-10-26T21:24:54.799Z,87.43
2023-10-26T21:27:22.394Z,87.27
2023-10-26T21:29:50.729Z,87.32
2023-10-26T21:32:19.433Z,87.17
2023-10-26T21:34:47.275Z,87.41
2023-10-26T21:37:15.160Z,87.26
2023-10-26T21:39:43.569Z,86.96
2023-10-26T21:42:11.482Z,86.46
2023-10-26T21:44:39.197Z,87.36
2023-10-26T21:47:07.132Z,86.65
2023-10-26T21:49:34.617Z,85.78
2023-10-26T21:52:02.268Z,85.67
2023-10-26T21:54:29.786Z,86.08
2023-10-26T21:56:57.663Z,86.60
2023-10-26T21:59:25.215Z,87.02
2023-10-26T22:01:53.051Z,86.53
2023-10-26T22:04:22.538Z,87.17
2023-10-26T22:06:51.451Z,86.75
2023-10-26T22:09:22.182Z,86.77
2023-10-26T22:11:50.456Z,86.67
2023-10-26T22:14:18.798Z,86.77
2023-10-26T22:16:47.353Z,86.97
2023-10-26T22:19:14.919Z,87.45
2023-10-26T22:21:42.728Z,87.15
2023-10-26T22:24:10.816Z,86.94
2023-10-26T22:26:38.621Z,86.96
2023-10-26T22:29:07.960Z,86.61
2023-10-26T22:31:37.961Z,87.17
2023-10-26T22:34:07.056Z,86.45
2023-10-26T22:36:37.621Z,86.91
2023-10-26T22:39:05.573Z,86.76
2023-10-26T22:41:33.101Z,86.41
2023-10-26T22:44:00.595Z,86.31
2023-10-26T22:46:28.119Z,86.66
2023-10-26T22:48:55.655Z,85.97
2023-10-26T22:51:23.169Z,85.83
2023-10-26T22:53:50.662Z,86.50
2023-10-26T22:56:21.352Z,86.58
2023-10-26T22:58:49.037Z,86.36
2023-10-26T23:01:16.544Z,86.31
2023-10-26T23:03:44.116Z,85.78
2023-10-26T23:06:12.350Z,85.53
2023-10-26T23:08:40.447Z,86.58
2023-10-26T23:11:08.027Z,85.99
2023-10-26T23:13:35.531Z,85.88
2023-10-26T23:16:04.291Z,85.63
2023-10-26T23:18:32.158Z,86.06
2023-10-26T23:20:59.886Z,86.22
2023-10-26T23:23:27.441Z,86.38
2023-10-26T23:25:55.014Z,86.53
2023-10-26T23:28:22.618Z,85.85
2023-10-26T23:30:50.422Z,86.32
2023-10-26T23:33:18.241Z,86.50
2023-10-26T23:35:46.204Z,85.88
2023-10-26T23:38:14.506Z,86.60
2023-10-26T23:40:42.517Z,86.52
2023-10-26T23:43:10.354Z,86.48
2023-10-26T23:45:37.855Z,86.30
2023-10-26T23:48:05.466Z,86.70
2023-10-26T23:50:33.066Z,86.80
2023-10-26T23:53:00.551Z,86.78
2023-10-26T23:55:28.092Z,87.08
2023-10-26T23:57:55.684Z,87.51
